sensor_id;sensor_type;location;lat;lon;timestamp;temperature;humidity
3919;DHT22;1974;48.670;8.994;2023-07-31T00:00:04;16.10;99.90
3919;DHT22;1974;48.670;8.994;2023-07-31T00:02:31;16.00;99.90
3919;DHT22;1974;48.670;8.994;2023-07-31T00:04:58;16.00;99.90
3919;DHT22;1974;48.670;8.994;2023-07-31T00:07:25;15.90;99.90
3919;DHT22;1974;48.670;8.994;2023-07-31T00:09:51;15.90;99.90
3919;DHT22;1974;48.670;8.994;2023-07-31T00:12:20;15.80;99.90
3919;DHT22;1974;48.670;8.994;2023-07-31T00:14:47;15.80;99.90
3919;DHT22;1974;48.670;8.994;2023-07-31T00:17:13;15.80;99.90
3919;DHT22;1974;48.670;8.994;2023-07-31T00:19:40;15.80;99.90
3919;DHT22;1974;48.670;8.994;2023-07-31T00:22:07;15.70;99.90
3919;DHT22;1974;48.670;8.994;2023-07-31T00:24:34;15.70;99.90
3919;DHT22;1974;48.670;8.994;2023-07-31T00:27:00;15.60;99.90
3919;DHT22;1974;48.670;8.994;2023-07-31T00:29:29;15.60;99.90
3919;DHT22;1974;48.670;8.994;2023-07-31T00:31:56;15.60;99.90
3919;DHT22;1974;48.670;8.994;2023-07-31T00:34:23;15.60;99.90
3919;DHT22;1974;48.670;8.994;2023-07-31T00:36:49;15.50;99.90
3919;DHT22;1974;48.670;8.994;2023-07-31T00:39:16;15.50;99.90
3919;DHT22;1974;48.670;8.994;2023-07-31T00:41:43;15.50;99.90
3919;DHT22;1974;48.670;8.994;2023-07-31T00:44:10;15.40;99.90
3919;DHT22;1974;48.670;8.994;2023-07-31T00:46:38;15.40;99.90
3919;DHT22;1974;48.670;8.994;2023-07-31T00:49:05;15.40;99.90
3919;DHT22;1974;48.670;8.994;2023-07-31T00:51:32;15.40;99.90
3919;DHT22;1974;48.670;8.994;2023-07-31T00:53:59;15.30;99.90
3919;DHT22;1974;48.670;8.994;2023-07-31T00:56:27;15.30;99.90
3919;DHT22;1974;48.670;8.994;2023-07-31T00:58:55;15.30;99.90
3919;DHT22;1974;48.670;8.994;2023-07-31T01:01:22;15.30;99.90
3919;DHT22;1974;48.670;8.994;2023-07-31T01:03:50;15.20;99.90
3919;DHT22;1974;48.670;8.994;2023-07-31T01:06:25;15.10;99.90
3919;DHT22;1974;48.670;8.994;2023-07-31T01:09:01;15.10;99.90
3919;DHT22;1974;48.670;8.994;2023-07-31T01:11:30;15.00;99.90
3919;DHT22;1974;48.670;8.994;2023-07-31T01:13:58;15.00;99.90
3919;DHT22;1974;48.670;8.994;2023-07-31T01:16:25;15.10;99.90
3919;DHT22;1974;48.670;8.994;2023-07-31T01:18:54;15.10;99.90
3919;DHT22;1974;48.670;8.994;2023-07-31T01:21:40;15.10;99.90
3919;DHT22;1974;48.670;8.994;2023-07-31T01:24:22;14.90;99.90
3919;DHT22;1974;48.670;8.994;2023-07-31T01:26:56;15.00;99.90
3919;DHT22;1974;48.670;8.994;2023-07-31T01:29:29;15.10;99.90
3919;DHT22;1974;48.670;8.994;2023-07-31T01:32:01;15.10;99.90
3919;DHT22;1974;48.670;8.994;2023-07-31T01:34:29;15.10;99.90
3919;DHT22;1974;48.670;8.994;2023-07-31T01:36:56;15.10;99.90
3919;DHT22;1974;48.670;8.994;2023-07-31T01:39:23;15.10;99.90
3919;DHT22;1974;48.670;8.994;2023-07-31T01:41:51;15.00;99.90
3919;DHT22;1974;48.670;8.994;2023-07-31T01:44:18;15.10;99.90
3919;DHT22;1974;48.670;8.994;2023-07-31T01:46:45;15.00;99.90
3919;DHT22;1974;48.670;8.994;2023-07-31T01:49:12;14.90;99.90
3919;DHT22;1974;48.670;8.994;2023-07-31T01:51:39;15.00;99.90
3919;DHT22;1974;48.670;8.994;2023-07-31T01:54:06;14.90;99.90
3919;DHT22;1974;48.670;8.994;2023-07-31T01:56:32;14.90;99.90
3919;DHT22;1974;48.670;8.994;2023-07-31T01:59:00;14.90;99.90
3919;DHT22;1974;48.670;8.994;2023-07-31T02:01:27;14.90;99.90
3919;DHT22;1974;48.670;8.994;2023-07-31T02:03:54;14.80;99.90
3919;DHT22;1974;48.670;8.994;2023-07-31T02:06:21;14.80;99.90
3919;DHT22;1974;48.670;8.994;2023-07-31T02:08:48;14.70;99.90
3919;DHT22;1974;48.670;8.994;2023-07-31T02:11:14;14.70;99.90
3919;DHT22;1974;48.670;8.994;2023-07-31T02:13:41;14.70;99.90
3919;DHT22;1974;48.670;8.994;2023-07-31T02:16:09;14.80;99.90
3919;DHT22;1974;48.670;8.994;2023-07-31T02:18:36;14.70;99.90
3919;DHT22;1974;48.670;8.994;2023-07-31T02:21:03;14.80;99.90
3919;DHT22;1974;48.670;8.994;2023-07-31T02:23:30;14.80;99.90
3919;DHT22;1974;48.670;8.994;2023-07-31T02:25:57;14.80;99.90
3919;DHT22;1974;48.670;8.994;2023-07-31T02:28:23;14.80;99.90
3919;DHT22;1974;48.670;8.994;2023-07-31T02:30:50;14.80;99.90
3919;DHT22;1974;48.670;8.994;2023-07-31T02:33:19;14.70;99.90
3919;DHT22;1974;48.670;8.994;2023-07-31T02:35:45;14.80;99.90
3919;DHT22;1974;48.670;8.994;2023-07-31T02:38:12;14.80;99.90
3919;DHT22;1974;48.670;8.994;2023-07-31T02:40:39;14.80;99.90
3919;DHT22;1974;48.670;8.994;2023-07-31T02:43:06;14.80;99.90
3919;DHT22;1974;48.670;8.994;2023-07-31T02:45:33;14.80;99.90
3919;DHT22;1974;48.670;8.994;2023-07-31T02:48:00;14.80;99.90
3919;DHT22;1974;48.670;8.994;2023-07-31T02:50:28;14.80;99.90
3919;DHT22;1974;48.670;8.994;2023-07-31T02:52:55;14.80;99.90
3919;DHT22;1974;48.670;8.994;2023-07-31T02:55:22;14.80;99.90
3919;DHT22;1974;48.670;8.994;2023-07-31T02:57:48;14.90;99.90
3919;DHT22;1974;48.670;8.994;2023-07-31T03:00:15;14.70;99.90
3919;DHT22;1974;48.670;8.994;2023-07-31T03:02:42;14.80;99.90
3919;DHT22;1974;48.670;8.994;2023-07-31T03:05:09;14.80;99.90
3919;DHT22;1974;48.670;8.994;2023-07-31T03:07:37;14.80;99.90
3919;DHT22;1974;48.670;8.994;2023-07-31T03:10:04;14.70;99.90
3919;DHT22;1974;48.670;8.994;2023-07-31T03:12:31;14.70;99.90
3919;DHT22;1974;48.670;8.994;2023-07-31T03:14:58;14.70;99.90
3919;DHT22;1974;48.670;8.994;2023-07-31T03:17:25;14.70;99.90
3919;DHT22;1974;48.670;8.994;2023-07-31T03:19:52;14.70;99.90
3919;DHT22;1974;48.670;8.994;2023-07-31T03:22:18;14.60;99.90
3919;DHT22;1974;48.670;8.994;2023-07-31T03:24:46;14.70;99.90
3919;DHT22;1974;48.670;8.994;2023-07-31T03:27:13;14.70;99.90
3919;DHT22;1974;48.670;8.994;2023-07-31T03:29:40;14.70;99.90
3919;DHT22;1974;48.670;8.994;2023-07-31T03:32:07;14.70;99.90
3919;DHT22;1974;48.670;8.994;2023-07-31T03:34:34;14.70;99.90
3919;DHT22;1974;48.670;8.994;2023-07-31T03:37:01;14.70;99.90
3919;DHT22;1974;48.670;8.994;2023-07-31T03:39:27;14.70;99.90
3919;DHT22;1974;48.670;8.994;2023-07-31T03:41:56;14.70;99.90
3919;DHT22;1974;48.670;8.994;2023-07-31T03:44:22;14.70;99.90
3919;DHT22;1974;48.670;8.994;2023-07-31T03:46:49;14.80;99.90
3919;DHT22;1974;48.670;8.994;2023-07-31T03:49:16;14.70;99.90
3919;DHT22;1974;48.670;8.994;2023-07-31T03:51:43;14.80;99.90
3919;DHT22;1974;48.670;8.994;2023-07-31T03:54:10;14.80;99.90
3919;DHT22;1974;48.670;8.994;2023-07-31T03:56:36;14.80;99.90
3919;DHT22;1974;48.670;8.994;2023-07-31T03:59:05;14.80;99.90
3919;DHT22;1974;48.670;8.994;2023-07-31T04:01:32;14.90;99.90
3919;DHT22;1974;48.670;8.994;2023-07-31T04:03:59;14.80;99.90
3919;DHT22;1974;48.670;8.994;2023-07-31T04:06:25;14.90;99.90
3919;DHT22;1974;48.670;8.994;2023-07-31T04:08:52;14.80;99.90
3919;DHT22;1974;48.670;8.994;2023-07-31T04:11:19;14.90;99.90
3919;DHT22;1974;48.670;8.994;2023-07-31T04:13:46;15.00;99.90
3919;DHT22;1974;48.670;8.994;2023-07-31T04:16:14;15.00;99.90
3919;DHT22;1974;48.670;8.994;2023-07-31T04:18:40;15.00;99.90
3919;DHT22;1974;48.670;8.994;2023-07-31T04:21:07;15.00;99.90
3919;DHT22;1974;48.670;8.994;2023-07-31T04:23:35;15.00;99.90
3919;DHT22;1974;48.670;8.994;2023-07-31T04:26:02;15.10;99.90
3919;DHT22;1974;48.670;8.994;2023-07-31T04:28:29;15.10;99.90
3919;DHT22;1974;48.670;8.994;2023-07-31T04:30:57;15.20;99.90
3919;DHT22;1974;48.670;8.994;2023-07-31T04:33:25;15.20;99.90
3919;DHT22;1974;48.670;8.994;2023-07-31T04:35:53;15.20;99.90
3919;DHT22;1974;48.670;8.994;2023-07-31T04:38:20;15.20;99.90
3919;DHT22;1974;48.670;8.994;2023-07-31T04:40:48;15.20;99.90
3919;DHT22;1974;48.670;8.994;2023-07-31T04:43:15;15.20;99.90
3919;DHT22;1974;48.670;8.994;2023-07-31T04:45:44;15.30;99.90
3919;DHT22;1974;48.670;8.994;2023-07-31T04:48:11;15.30;99.90
3919;DHT22;1974;48.670;8.994;2023-07-31T04:50:39;15.30;99.90
3919;DHT22;1974;48.670;8.994;2023-07-31T04:53:06;15.40;99.90
3919;DHT22;1974;48.670;8.994;2023-07-31T04:55:33;15.30;99.90
3919;DHT22;1974;48.670;8.994;2023-07-31T04:58:00;15.30;99.90
3919;DHT22;1974;48.670;8.994;2023-07-31T05:00:26;15.30;99.90
3919;DHT22;1974;48.670;8.994;2023-07-31T05:02:53;15.30;99.90
3919;DHT22;1974;48.670;8.994;2023-07-31T05:05:20;15.40;99.90
3919;DHT22;1974;48.670;8.994;2023-07-31T05:07:48;15.40;99.90
3919;DHT22;1974;48.670;8.994;2023-07-31T05:10:15;15.50;99.90
3919;DHT22;1974;48.670;8.994;2023-07-31T05:12:42;15.50;99.90
3919;DHT22;1974;48.670;8.994;2023-07-31T05:15:09;15.60;99.90
3919;DHT22;1974;48.670;8.994;2023-07-31T05:17:36;15.60;99.90
3919;DHT22;1974;48.670;8.994;2023-07-31T05:20:03;15.60;99.90
3919;DHT22;1974;48.670;8.994;2023-07-31T05:22:30;15.70;99.90
3919;DHT22;1974;48.670;8.994;2023-07-31T05:24:58;15.70;99.90
3919;DHT22;1974;48.670;8.994;2023-07-31T05:27:25;15.70;99.90
3919;DHT22;1974;48.670;8.994;2023-07-31T05:29:52;15.70;99.90
3919;DHT22;1974;48.670;8.994;2023-07-31T05:32:19;15.70;99.90
3919;DHT22;1974;48.670;8.994;2023-07-31T05:34:45;15.80;99.90
3919;DHT22;1974;48.670;8.994;2023-07-31T05:37:12;15.90;99.90
3919;DHT22;1974;48.670;8.994;2023-07-31T05:39:39;15.90;99.90
3919;DHT22;1974;48.670;8.994;2023-07-31T05:42:07;15.90;99.90
3919;DHT22;1974;48.670;8.994;2023-07-31T05:44:34;16.00;99.90
3919;DHT22;1974;48.670;8.994;2023-07-31T05:47:01;16.10;99.90
3919;DHT22;1974;48.670;8.994;2023-07-31T05:49:27;16.10;99.90
3919;DHT22;1974;48.670;8.994;2023-07-31T05:51:54;16.20;99.90
3919;DHT22;1974;48.670;8.994;2023-07-31T05:54:21;16.30;99.90
3919;DHT22;1974;48.670;8.994;2023-07-31T05:56:48;16.40;99.90
3919;DHT22;1974;48.670;8.994;2023-07-31T05:59:16;16.50;99.90
3919;DHT22;1974;48.670;8.994;2023-07-31T06:01:43;16.50;99.90
3919;DHT22;1974;48.670;8.994;2023-07-31T06:04:10;16.50;99.90
3919;DHT22;1974;48.670;8.994;2023-07-31T06:06:36;16.50;99.90
3919;DHT22;1974;48.670;8.994;2023-07-31T06:09:03;16.60;99.90
3919;DHT22;1974;48.670;8.994;2023-07-31T06:11:30;16.50;99.90
3919;DHT22;1974;48.670;8.994;2023-07-31T06:13:57;16.60;99.90
3919;DHT22;1974;48.670;8.994;2023-07-31T06:16:25;16.60;99.90
3919;DHT22;1974;48.670;8.994;2023-07-31T06:18:52;16.60;99.90
3919;DHT22;1974;48.670;8.994;2023-07-31T06:21:19;16.60;99.90
3919;DHT22;1974;48.670;8.994;2023-07-31T06:23:46;16.70;99.90
3919;DHT22;1974;48.670;8.994;2023-07-31T06:26:13;16.80;99.90
3919;DHT22;1974;48.670;8.994;2023-07-31T06:28:40;16.90;99.90
3919;DHT22;1974;48.670;8.994;2023-07-31T06:31:06;17.00;99.90
3919;DHT22;1974;48.670;8.994;2023-07-31T06:33:35;17.00;99.90
3919;DHT22;1974;48.670;8.994;2023-07-31T06:36:01;17.30;99.90
3919;DHT22;1974;48.670;8.994;2023-07-31T06:38:28;17.30;99.90
3919;DHT22;1974;48.670;8.994;2023-07-31T06:40:55;17.40;99.90
3919;DHT22;1974;48.670;8.994;2023-07-31T06:43:22;17.40;99.90
3919;DHT22;1974;48.670;8.994;2023-07-31T06:45:51;17.50;99.90
3919;DHT22;1974;48.670;8.994;2023-07-31T06:48:18;17.50;99.90
3919;DHT22;1974;48.670;8.994;2023-07-31T06:50:46;17.70;99.90
3919;DHT22;1974;48.670;8.994;2023-07-31T06:53:13;17.90;99.90
3919;DHT22;1974;48.670;8.994;2023-07-31T06:55:40;18.00;99.90
3919;DHT22;1974;48.670;8.994;2023-07-31T06:58:07;18.10;99.90
3919;DHT22;1974;48.670;8.994;2023-07-31T07:00:33;18.00;99.90
3919;DHT22;1974;48.670;8.994;2023-07-31T07:03:00;18.00;99.90
3919;DHT22;1974;48.670;8.994;2023-07-31T07:05:27;18.10;99.90
3919;DHT22;1974;48.670;8.994;2023-07-31T07:07:55;18.20;99.90
3919;DHT22;1974;48.670;8.994;2023-07-31T07:10:22;18.20;99.90
3919;DHT22;1974;48.670;8.994;2023-07-31T07:12:49;18.50;99.90
3919;DHT22;1974;48.670;8.994;2023-07-31T07:15:16;18.70;99.90
3919;DHT22;1974;48.670;8.994;2023-07-31T07:17:42;18.80;99.90
3919;DHT22;1974;48.670;8.994;2023-07-31T07:20:09;19.00;99.90
3919;DHT22;1974;48.670;8.994;2023-07-31T07:22:36;19.10;99.90
3919;DHT22;1974;48.670;8.994;2023-07-31T07:25:05;19.20;99.90
3919;DHT22;1974;48.670;8.994;2023-07-31T07:27:32;19.10;99.90
3919;DHT22;1974;48.670;8.994;2023-07-31T07:29:59;19.10;99.90
3919;DHT22;1974;48.670;8.994;2023-07-31T07:32:26;19.00;99.90
3919;DHT22;1974;48.670;8.994;2023-07-31T07:34:53;18.90;99.90
3919;DHT22;1974;48.670;8.994;2023-07-31T07:37:21;19.00;99.90
3919;DHT22;1974;48.670;8.994;2023-07-31T07:39:48;18.90;99.90
3919;DHT22;1974;48.670;8.994;2023-07-31T07:42:17;18.70;99.90
3919;DHT22;1974;48.670;8.994;2023-07-31T07:44:44;18.60;99.90
3919;DHT22;1974;48.670;8.994;2023-07-31T07:47:11;18.70;99.90
3919;DHT22;1974;48.670;8.994;2023-07-31T07:49:37;18.70;99.90
3919;DHT22;1974;48.670;8.994;2023-07-31T07:52:05;18.80;99.90
3919;DHT22;1974;48.670;8.994;2023-07-31T07:54:31;18.90;99.90
3919;DHT22;1974;48.670;8.994;2023-07-31T07:56:58;19.00;99.90
3919;DHT22;1974;48.670;8.994;2023-07-31T07:59:27;19.20;99.90
3919;DHT22;1974;48.670;8.994;2023-07-31T08:01:53;19.40;99.90
3919;DHT22;1974;48.670;8.994;2023-07-31T08:04:20;19.50;99.90
3919;DHT22;1974;48.670;8.994;2023-07-31T08:06:47;19.80;99.90
3919;DHT22;1974;48.670;8.994;2023-07-31T08:09:14;20.00;99.90
3919;DHT22;1974;48.670;8.994;2023-07-31T08:11:40;20.20;99.90
3919;DHT22;1974;48.670;8.994;2023-07-31T08:14:07;20.30;99.90
3919;DHT22;1974;48.670;8.994;2023-07-31T08:16:35;20.40;99.90
3919;DHT22;1974;48.670;8.994;2023-07-31T08:19:02;20.50;99.90
3919;DHT22;1974;48.670;8.994;2023-07-31T08:21:29;20.50;99.90
3919;DHT22;1974;48.670;8.994;2023-07-31T08:23:55;20.70;99.90
3919;DHT22;1974;48.670;8.994;2023-07-31T08:26:22;20.70;99.90
3919;DHT22;1974;48.670;8.994;2023-07-31T08:28:49;20.80;99.90
3919;DHT22;1974;48.670;8.994;2023-07-31T08:31:16;21.00;99.90
3919;DHT22;1974;48.670;8.994;2023-07-31T08:33:45;21.00;99.90
3919;DHT22;1974;48.670;8.994;2023-07-31T08:36:11;21.10;99.90
3919;DHT22;1974;48.670;8.994;2023-07-31T08:38:38;21.30;99.90
3919;DHT22;1974;48.670;8.994;2023-07-31T08:41:05;21.40;99.90
3919;DHT22;1974;48.670;8.994;2023-07-31T08:43:32;21.50;99.90
3919;DHT22;1974;48.670;8.994;2023-07-31T08:45:59;21.20;99.90
3919;DHT22;1974;48.670;8.994;2023-07-31T08:48:28;21.00;99.90
3919;DHT22;1974;48.670;8.994;2023-07-31T08:50:57;20.80;99.90
3919;DHT22;1974;48.670;8.994;2023-07-31T08:53:24;20.60;99.90
3919;DHT22;1974;48.670;8.994;2023-07-31T08:55:53;20.40;99.90
3919;DHT22;1974;48.670;8.994;2023-07-31T08:58:20;20.40;99.90
3919;DHT22;1974;48.670;8.994;2023-07-31T09:00:47;20.20;99.90
3919;DHT22;1974;48.670;8.994;2023-07-31T09:03:15;20.40;99.90
3919;DHT22;1974;48.670;8.994;2023-07-31T09:05:44;20.30;99.90
3919;DHT22;1974;48.670;8.994;2023-07-31T09:08:13;20.30;99.90
3919;DHT22;1974;48.670;8.994;2023-07-31T09:10:41;20.60;99.90
3919;DHT22;1974;48.670;8.994;2023-07-31T09:13:09;20.70;99.90
3919;DHT22;1974;48.670;8.994;2023-07-31T09:15:36;21.00;99.90
3919;DHT22;1974;48.670;8.994;2023-07-31T09:18:04;21.10;99.90
3919;DHT22;1974;48.670;8.994;2023-07-31T09:20:31;21.40;99.90
3919;DHT22;1974;48.670;8.994;2023-07-31T09:23:06;21.60;99.90
3919;DHT22;1974;48.670;8.994;2023-07-31T09:25:35;21.50;99.90
3919;DHT22;1974;48.670;8.994;2023-07-31T09:28:03;21.40;99.90
3919;DHT22;1974;48.670;8.994;2023-07-31T09:30:31;21.40;99.90
3919;DHT22;1974;48.670;8.994;2023-07-31T09:33:02;21.30;99.90
3919;DHT22;1974;48.670;8.994;2023-07-31T09:35:32;21.10;99.90
3919;DHT22;1974;48.670;8.994;2023-07-31T09:38:03;21.10;99.90
3919;DHT22;1974;48.670;8.994;2023-07-31T09:40:30;21.10;99.90
3919;DHT22;1974;48.670;8.994;2023-07-31T09:43:00;21.10;99.90
3919;DHT22;1974;48.670;8.994;2023-07-31T09:45:27;21.00;99.90
3919;DHT22;1974;48.670;8.994;2023-07-31T09:47:55;21.00;99.90
3919;DHT22;1974;48.670;8.994;2023-07-31T09:50:23;21.20;99.90
3919;DHT22;1974;48.670;8.994;2023-07-31T09:52:50;21.40;99.90
3919;DHT22;1974;48.670;8.994;2023-07-31T09:55:17;21.40;99.90
3919;DHT22;1974;48.670;8.994;2023-07-31T09:57:46;21.30;99.90
3919;DHT22;1974;48.670;8.994;2023-07-31T10:00:17;21.50;99.90
3919;DHT22;1974;48.670;8.994;2023-07-31T10:02:46;21.40;99.90
3919;DHT22;1974;48.670;8.994;2023-07-31T10:05:13;21.50;99.90
3919;DHT22;1974;48.670;8.994;2023-07-31T10:07:43;21.60;99.90
3919;DHT22;1974;48.670;8.994;2023-07-31T10:10:10;21.80;99.90
3919;DHT22;1974;48.670;8.994;2023-07-31T10:12:38;21.90;99.90
3919;DHT22;1974;48.670;8.994;2023-07-31T10:15:06;22.00;99.90
3919;DHT22;1974;48.670;8.994;2023-07-31T10:17:36;22.20;99.90
3919;DHT22;1974;48.670;8.994;2023-07-31T10:20:03;22.30;99.90
3919;DHT22;1974;48.670;8.994;2023-07-31T10:22:31;22.30;99.90
3919;DHT22;1974;48.670;8.994;2023-07-31T10:24:59;22.20;99.90
3919;DHT22;1974;48.670;8.994;2023-07-31T10:27:26;22.20;99.90
3919;DHT22;1974;48.670;8.994;2023-07-31T10:29:55;22.30;99.90
3919;DHT22;1974;48.670;8.994;2023-07-31T10:32:24;22.40;99.90
3919;DHT22;1974;48.670;8.994;2023-07-31T10:34:53;22.40;99.90
3919;DHT22;1974;48.670;8.994;2023-07-31T10:37:24;22.30;99.90
3919;DHT22;1974;48.670;8.994;2023-07-31T10:39:56;22.40;99.90
3919;DHT22;1974;48.670;8.994;2023-07-31T10:42:28;22.50;99.90
3919;DHT22;1974;48.670;8.994;2023-07-31T10:44:57;22.60;99.90
3919;DHT22;1974;48.670;8.994;2023-07-31T10:47:24;22.60;99.90
3919;DHT22;1974;48.670;8.994;2023-07-31T10:49:52;22.60;99.90
3919;DHT22;1974;48.670;8.994;2023-07-31T10:52:21;22.80;99.90
3919;DHT22;1974;48.670;8.994;2023-07-31T10:55:14;23.10;99.90
3919;DHT22;1974;48.670;8.994;2023-07-31T10:57:44;23.20;99.90
3919;DHT22;1974;48.670;8.994;2023-07-31T11:00:25;23.50;99.90
3919;DHT22;1974;48.670;8.994;2023-07-31T11:02:59;23.70;99.90
3919;DHT22;1974;48.670;8.994;2023-07-31T11:05:50;23.70;99.90
3919;DHT22;1974;48.670;8.994;2023-07-31T11:08:20;23.30;99.90
3919;DHT22;1974;48.670;8.994;2023-07-31T11:10:49;23.00;99.90
3919;DHT22;1974;48.670;8.994;2023-07-31T11:13:16;22.70;99.90
3919;DHT22;1974;48.670;8.994;2023-07-31T11:15:42;22.60;99.90
3919;DHT22;1974;48.670;8.994;2023-07-31T11:18:09;22.50;99.90
3919;DHT22;1974;48.670;8.994;2023-07-31T11:20:37;22.60;99.90
3919;DHT22;1974;48.670;8.994;2023-07-31T11:23:07;22.60;99.90
3919;DHT22;1974;48.670;8.994;2023-07-31T11:25:34;22.50;99.90
3919;DHT22;1974;48.670;8.994;2023-07-31T11:28:05;22.50;99.90
3919;DHT22;1974;48.670;8.994;2023-07-31T11:30:32;22.50;99.90
3919;DHT22;1974;48.670;8.994;2023-07-31T11:33:01;22.40;99.90
3919;DHT22;1974;48.670;8.994;2023-07-31T11:35:30;22.20;99.90
3919;DHT22;1974;48.670;8.994;2023-07-31T11:37:56;22.10;99.90
3919;DHT22;1974;48.670;8.994;2023-07-31T11:40:24;22.00;99.90
3919;DHT22;1974;48.670;8.994;2023-07-31T11:42:55;21.80;99.90
3919;DHT22;1974;48.670;8.994;2023-07-31T11:45:25;21.80;99.90
3919;DHT22;1974;48.670;8.994;2023-07-31T11:47:52;21.80;99.90
3919;DHT22;1974;48.670;8.994;2023-07-31T11:50:18;21.80;99.90
3919;DHT22;1974;48.670;8.994;2023-07-31T11:52:46;21.70;99.90
3919;DHT22;1974;48.670;8.994;2023-07-31T11:55:16;21.60;99.90
3919;DHT22;1974;48.670;8.994;2023-07-31T11:57:45;21.60;99.90
3919;DHT22;1974;48.670;8.994;2023-07-31T12:00:13;21.60;99.90
3919;DHT22;1974;48.670;8.994;2023-07-31T12:02:40;21.70;99.90
3919;DHT22;1974;48.670;8.994;2023-07-31T12:05:10;21.90;99.90
3919;DHT22;1974;48.670;8.994;2023-07-31T12:07:45;22.10;99.90
3919;DHT22;1974;48.670;8.994;2023-07-31T12:10:21;22.00;99.90
3919;DHT22;1974;48.670;8.994;2023-07-31T12:13:01;21.90;99.90
3919;DHT22;1974;48.670;8.994;2023-07-31T12:15:35;21.90;99.90
3919;DHT22;1974;48.670;8.994;2023-07-31T12:18:07;21.80;99.90
3919;DHT22;1974;48.670;8.994;2023-07-31T12:20:34;21.80;99.90
3919;DHT22;1974;48.670;8.994;2023-07-31T12:23:01;21.70;99.90
3919;DHT22;1974;48.670;8.994;2023-07-31T12:25:30;21.70;99.90
3919;DHT22;1974;48.670;8.994;2023-07-31T12:28:03;21.60;99.90
3919;DHT22;1974;48.670;8.994;2023-07-31T12:30:32;21.60;99.90
3919;DHT22;1974;48.670;8.994;2023-07-31T12:33:03;21.70;99.90
3919;DHT22;1974;48.670;8.994;2023-07-31T12:35:35;21.60;99.90
3919;DHT22;1974;48.670;8.994;2023-07-31T12:38:02;21.60;99.90
3919;DHT22;1974;48.670;8.994;2023-07-31T12:40:29;21.50;99.90
3919;DHT22;1974;48.670;8.994;2023-07-31T12:42:58;21.40;99.90
3919;DHT22;1974;48.670;8.994;2023-07-31T12:45:27;21.50;99.90
3919;DHT22;1974;48.670;8.994;2023-07-31T12:47:54;21.70;99.90
3919;DHT22;1974;48.670;8.994;2023-07-31T12:50:20;21.90;99.90
3919;DHT22;1974;48.670;8.994;2023-07-31T12:52:48;21.90;99.90
3919;DHT22;1974;48.670;8.994;2023-07-31T12:55:14;21.90;99.90
3919;DHT22;1974;48.670;8.994;2023-07-31T12:57:41;22.00;99.90
3919;DHT22;1974;48.670;8.994;2023-07-31T13:00:11;22.10;99.90
3919;DHT22;1974;48.670;8.994;2023-07-31T13:02:38;22.30;99.90
3919;DHT22;1974;48.670;8.994;2023-07-31T13:05:05;22.40;99.90
3919;DHT22;1974;48.670;8.994;2023-07-31T13:07:32;22.50;99.90
3919;DHT22;1974;48.670;8.994;2023-07-31T13:09:59;22.50;99.90
3919;DHT22;1974;48.670;8.994;2023-07-31T13:12:26;22.50;99.90
3919;DHT22;1974;48.670;8.994;2023-07-31T13:14:52;22.40;99.90
3919;DHT22;1974;48.670;8.994;2023-07-31T13:17:20;22.40;99.90
3919;DHT22;1974;48.670;8.994;2023-07-31T13:19:47;22.30;99.90
3919;DHT22;1974;48.670;8.994;2023-07-31T13:22:14;22.30;99.90
3919;DHT22;1974;48.670;8.994;2023-07-31T13:24:41;22.30;99.90
3919;DHT22;1974;48.670;8.994;2023-07-31T13:27:08;22.40;99.90
3919;DHT22;1974;48.670;8.994;2023-07-31T13:29:34;22.30;99.90
3919;DHT22;1974;48.670;8.994;2023-07-31T13:32:01;22.30;99.90
3919;DHT22;1974;48.670;8.994;2023-07-31T13:34:29;22.20;99.90
3919;DHT22;1974;48.670;8.994;2023-07-31T13:36:56;22.20;99.90
3919;DHT22;1974;48.670;8.994;2023-07-31T13:39:23;22.30;99.90
3919;DHT22;1974;48.670;8.994;2023-07-31T13:41:49;22.30;99.90
3919;DHT22;1974;48.670;8.994;2023-07-31T13:44:16;22.30;99.90
3919;DHT22;1974;48.670;8.994;2023-07-31T13:46:43;22.30;99.90
3919;DHT22;1974;48.670;8.994;2023-07-31T13:49:10;22.40;99.90
3919;DHT22;1974;48.670;8.994;2023-07-31T13:51:38;22.40;99.90
3919;DHT22;1974;48.670;8.994;2023-07-31T13:54:05;22.40;99.90
3919;DHT22;1974;48.670;8.994;2023-07-31T13:56:33;22.30;99.90
3919;DHT22;1974;48.670;8.994;2023-07-31T13:58:59;22.30;99.90
3919;DHT22;1974;48.670;8.994;2023-07-31T14:01:26;22.30;99.90
3919;DHT22;1974;48.670;8.994;2023-07-31T14:03:53;22.30;99.90
3919;DHT22;1974;48.670;8.994;2023-07-31T14:06:20;22.30;99.90
3919;DHT22;1974;48.670;8.994;2023-07-31T14:08:48;22.30;99.90
3919;DHT22;1974;48.670;8.994;2023-07-31T14:11:15;22.20;99.90
3919;DHT22;1974;48.670;8.994;2023-07-31T14:13:41;22.10;99.90
3919;DHT22;1974;48.670;8.994;2023-07-31T14:16:08;22.10;99.90
3919;DHT22;1974;48.670;8.994;2023-07-31T14:18:35;22.10;99.90
3919;DHT22;1974;48.670;8.994;2023-07-31T14:21:02;22.00;99.90
3919;DHT22;1974;48.670;8.994;2023-07-31T14:23:28;21.90;99.90
3919;DHT22;1974;48.670;8.994;2023-07-31T14:25:57;21.90;99.90
3919;DHT22;1974;48.670;8.994;2023-07-31T14:28:23;21.80;99.90
3919;DHT22;1974;48.670;8.994;2023-07-31T14:30:50;21.90;99.90
3919;DHT22;1974;48.670;8.994;2023-07-31T14:33:17;21.80;99.90
3919;DHT22;1974;48.670;8.994;2023-07-31T14:35:44;21.90;99.90
3919;DHT22;1974;48.670;8.994;2023-07-31T14:38:10;21.90;99.90
3919;DHT22;1974;48.670;8.994;2023-07-31T14:40:37;21.90;99.90
3919;DHT22;1974;48.670;8.994;2023-07-31T14:43:05;21.90;99.90
3919;DHT22;1974;48.670;8.994;2023-07-31T14:45:32;22.00;99.90
3919;DHT22;1974;48.670;8.994;2023-07-31T14:47:59;22.10;99.90
3919;DHT22;1974;48.670;8.994;2023-07-31T14:50:26;22.20;99.90
3919;DHT22;1974;48.670;8.994;2023-07-31T14:52:52;22.20;99.90
3919;DHT22;1974;48.670;8.994;2023-07-31T14:55:19;22.20;99.90
3919;DHT22;1974;48.670;8.994;2023-07-31T14:57:46;22.30;99.90
3919;DHT22;1974;48.670;8.994;2023-07-31T15:00:15;22.30;99.90
3919;DHT22;1974;48.670;8.994;2023-07-31T15:02:41;22.30;99.90
3919;DHT22;1974;48.670;8.994;2023-07-31T15:05:08;22.30;99.90
3919;DHT22;1974;48.670;8.994;2023-07-31T15:07:35;22.30;99.90
3919;DHT22;1974;48.670;8.994;2023-07-31T15:10:02;22.30;99.90
3919;DHT22;1974;48.670;8.994;2023-07-31T15:12:29;22.30;99.90
3919;DHT22;1974;48.670;8.994;2023-07-31T15:14:56;22.30;99.90
3919;DHT22;1974;48.670;8.994;2023-07-31T15:17:24;22.30;99.90
3919;DHT22;1974;48.670;8.994;2023-07-31T15:19:51;22.20;99.90
3919;DHT22;1974;48.670;8.994;2023-07-31T15:22:18;22.20;99.90
3919;DHT22;1974;48.670;8.994;2023-07-31T15:24:45;22.20;99.90
3919;DHT22;1974;48.670;8.994;2023-07-31T15:27:14;22.10;99.90
3919;DHT22;1974;48.670;8.994;2023-07-31T15:29:41;22.10;99.90
3919;DHT22;1974;48.670;8.994;2023-07-31T15:32:08;22.00;99.90
3919;DHT22;1974;48.670;8.994;2023-07-31T15:34:36;22.00;99.90
3919;DHT22;1974;48.670;8.994;2023-07-31T15:37:03;22.00;99.90
3919;DHT22;1974;48.670;8.994;2023-07-31T15:39:30;22.00;99.90
3919;DHT22;1974;48.670;8.994;2023-07-31T15:41:57;22.00;99.90
3919;DHT22;1974;48.670;8.994;2023-07-31T15:44:24;21.90;99.90
3919;DHT22;1974;48.670;8.994;2023-07-31T15:46:50;21.90;99.90
3919;DHT22;1974;48.670;8.994;2023-07-31T15:49:17;21.80;99.90
3919;DHT22;1974;48.670;8.994;2023-07-31T15:51:45;21.80;99.90
3919;DHT22;1974;48.670;8.994;2023-07-31T15:54:12;21.80;99.90
3919;DHT22;1974;48.670;8.994;2023-07-31T15:56:39;21.80;99.90
3919;DHT22;1974;48.670;8.994;2023-07-31T15:59:05;21.70;99.90
3919;DHT22;1974;48.670;8.994;2023-07-31T16:01:32;21.70;99.90
3919;DHT22;1974;48.670;8.994;2023-07-31T16:03:59;21.70;99.90